sensor_id;sensor_type;location;lat;lon;timestamp;P1;durP1;ratioP1;P2;durP2;ratioP2
12812;SDS011;6471;50.932;6.934;2022-09-17T00:01:33;3.63;;;1.60;;
12812;SDS011;6471;50.932;6.934;2022-09-17T00:03:59;5.60;;;1.50;;
12812;SDS011;6471;50.932;6.934;2022-09-17T00:06:28;3.13;;;1.60;;
12812;SDS011;6471;50.932;6.934;2022-09-17T00:08:54;4.90;;;2.10;;
12812;SDS011;6471;50.932;6.934;2022-09-17T00:11:23;4.60;;;1.57;;
12812;SDS011;6471;50.932;6.934;2022-09-17T00:13:50;4.97;;;1.87;;
12812;SDS011;6471;50.932;6.934;2022-09-17T00:18:48;3.40;;;1.60;;
12812;SDS011;6471;50.932;6.934;2022-09-17T00:21:15;5.70;;;1.60;;
12812;SDS011;6471;50.932;6.934;2022-09-17T00:23:42;6.07;;;1.60;;
12812;SDS011;6471;50.932;6.934;2022-09-17T00:26:08;5.83;;;1.80;;
12812;SDS011;6471;50.932;6.934;2022-09-17T00:31:30;6.20;;;1.90;;
12812;SDS011;6471;50.932;6.934;2022-09-17T00:34:34;3.43;;;1.50;;
12812;SDS011;6471;50.932;6.934;2022-09-17T00:37:03;5.97;;;2.13;;
12812;SDS011;6471;50.932;6.934;2022-09-17T00:39:30;3.83;;;1.87;;
12812;SDS011;6471;50.932;6.934;2022-09-17T00:42:01;6.33;;;2.00;;
12812;SDS011;6471;50.932;6.934;2022-09-17T00:49:51;2.97;;;1.63;;
12812;SDS011;6471;50.932;6.934;2022-09-17T00:52:41;3.27;;;1.80;;
12812;SDS011;6471;50.932;6.934;2022-09-17T00:57:40;5.90;;;1.97;;
12812;SDS011;6471;50.932;6.934;2022-09-17T01:00:15;6.50;;;2.00;;
12812;SDS011;6471;50.932;6.934;2022-09-17T01:02:52;3.97;;;1.60;;
12812;SDS011;6471;50.932;6.934;2022-09-17T01:05:27;4.73;;;1.60;;
12812;SDS011;6471;50.932;6.934;2022-09-17T01:08:03;5.07;;;1.90;;
12812;SDS011;6471;50.932;6.934;2022-09-17T01:10:42;7.43;;;2.03;;
12812;SDS011;6471;50.932;6.934;2022-09-17T01:15:48;7.53;;;2.10;;
12812;SDS011;6471;50.932;6.934;2022-09-17T01:23:30;6.63;;;1.80;;
12812;SDS011;6471;50.932;6.934;2022-09-17T01:28:40;5.70;;;1.90;;
12812;SDS011;6471;50.932;6.934;2022-09-17T01:34:23;6.27;;;2.07;;
12812;SDS011;6471;50.932;6.934;2022-09-17T01:46:39;3.10;;;1.83;;
12812;SDS011;6471;50.932;6.934;2022-09-17T01:49:09;4.63;;;1.90;;
12812;SDS011;6471;50.932;6.934;2022-09-17T01:51:39;7.40;;;2.13;;
12812;SDS011;6471;50.932;6.934;2022-09-17T01:54:29;4.70;;;2.00;;
12812;SDS011;6471;50.932;6.934;2022-09-17T01:57:06;3.40;;;1.67;;
12812;SDS011;6471;50.932;6.934;2022-09-17T01:59:35;5.00;;;1.83;;
12812;SDS011;6471;50.932;6.934;2022-09-17T02:02:19;3.40;;;1.80;;
12812;SDS011;6471;50.932;6.934;2022-09-17T02:05:00;6.70;;;2.20;;
12812;SDS011;6471;50.932;6.934;2022-09-17T02:07:27;5.87;;;1.97;;
12812;SDS011;6471;50.932;6.934;2022-09-17T02:10:16;4.87;;;2.20;;
12812;SDS011;6471;50.932;6.934;2022-09-17T02:12:49;6.17;;;1.97;;
12812;SDS011;6471;50.932;6.934;2022-09-17T02:15:25;7.33;;;2.20;;
12812;SDS011;6471;50.932;6.934;2022-09-17T02:18:05;5.03;;;1.93;;
12812;SDS011;6471;50.932;6.934;2022-09-17T02:20:41;6.23;;;1.80;;
12812;SDS011;6471;50.932;6.934;2022-09-17T02:23:20;5.40;;;1.80;;
12812;SDS011;6471;50.932;6.934;2022-09-17T02:25:58;7.07;;;2.30;;
12812;SDS011;6471;50.932;6.934;2022-09-17T02:28:32;5.83;;;2.17;;
12812;SDS011;6471;50.932;6.934;2022-09-17T02:31:01;6.80;;;1.93;;
12812;SDS011;6471;50.932;6.934;2022-09-17T02:33:27;5.97;;;1.80;;
12812;SDS011;6471;50.932;6.934;2022-09-17T02:36:03;4.50;;;1.70;;
12812;SDS011;6471;50.932;6.934;2022-09-17T02:38:30;3.63;;;1.70;;
12812;SDS011;6471;50.932;6.934;2022-09-17T02:41:12;7.97;;;2.20;;
12812;SDS011;6471;50.932;6.934;2022-09-17T02:46:22;6.83;;;2.00;;
12812;SDS011;6471;50.932;6.934;2022-09-17T02:51:42;9.00;;;2.23;;
12812;SDS011;6471;50.932;6.934;2022-09-17T02:57:19;5.17;;;2.03;;
12812;SDS011;6471;50.932;6.934;2022-09-17T03:04:43;4.00;;;2.13;;
12812;SDS011;6471;50.932;6.934;2022-09-17T03:07:11;8.53;;;2.70;;
12812;SDS011;6471;50.932;6.934;2022-09-17T03:09:38;5.97;;;2.10;;
12812;SDS011;6471;50.932;6.934;2022-09-17T03:12:07;8.63;;;2.23;;
12812;SDS011;6471;50.932;6.934;2022-09-17T03:14:33;8.17;;;2.33;;
12812;SDS011;6471;50.932;6.934;2022-09-17T03:17:00;8.67;;;2.30;;
12812;SDS011;6471;50.932;6.934;2022-09-17T03:19:26;5.73;;;2.10;;
12812;SDS011;6471;50.932;6.934;2022-09-17T03:21:52;5.47;;;2.20;;
12812;SDS011;6471;50.932;6.934;2022-09-17T03:24:19;4.50;;;1.97;;
12812;SDS011;6471;50.932;6.934;2022-09-17T03:26:45;6.33;;;2.10;;
12812;SDS011;6471;50.932;6.934;2022-09-17T03:29:14;7.40;;;2.20;;
12812;SDS011;6471;50.932;6.934;2022-09-17T03:31:41;6.10;;;2.07;;
12812;SDS011;6471;50.932;6.934;2022-09-17T03:34:07;6.03;;;2.13;;
12812;SDS011;6471;50.932;6.934;2022-09-17T03:36:33;5.73;;;1.97;;
12812;SDS011;6471;50.932;6.934;2022-09-17T03:38:59;6.53;;;1.90;;
12812;SDS011;6471;50.932;6.934;2022-09-17T03:41:25;6.77;;;1.90;;
12812;SDS011;6471;50.932;6.934;2022-09-17T03:43:51;6.37;;;2.00;;
12812;SDS011;6471;50.932;6.934;2022-09-17T03:46:18;8.13;;;2.23;;
12812;SDS011;6471;50.932;6.934;2022-09-17T03:48:44;6.70;;;1.90;;
12812;SDS011;6471;50.932;6.934;2022-09-17T03:51:10;6.23;;;1.97;;
12812;SDS011;6471;50.932;6.934;2022-09-17T03:53:36;6.53;;;2.10;;
12812;SDS011;6471;50.932;6.934;2022-09-17T03:56:03;6.40;;;1.80;;
12812;SDS011;6471;50.932;6.934;2022-09-17T03:58:33;6.60;;;1.80;;
12812;SDS011;6471;50.932;6.934;2022-09-17T04:00:59;5.40;;;1.87;;
12812;SDS011;6471;50.932;6.934;2022-09-17T04:03:27;5.93;;;1.80;;
12812;SDS011;6471;50.932;6.934;2022-09-17T04:05:54;5.30;;;2.00;;
12812;SDS011;6471;50.932;6.934;2022-09-17T04:08:20;5.73;;;2.40;;
12812;SDS011;6471;50.932;6.934;2022-09-17T04:10:46;7.93;;;2.50;;
12812;SDS011;6471;50.932;6.934;2022-09-17T04:13:14;8.67;;;2.33;;
12812;SDS011;6471;50.932;6.934;2022-09-17T04:15:40;7.90;;;2.03;;
12812;SDS011;6471;50.932;6.934;2022-09-17T04:18:07;4.93;;;1.57;;
12812;SDS011;6471;50.932;6.934;2022-09-17T04:20:33;7.33;;;2.27;;
12812;SDS011;6471;50.932;6.934;2022-09-17T04:22:59;6.27;;;1.90;;
12812;SDS011;6471;50.932;6.934;2022-09-17T04:25:25;9.27;;;2.27;;
12812;SDS011;6471;50.932;6.934;2022-09-17T04:27:54;11.43;;;2.10;;
12812;SDS011;6471;50.932;6.934;2022-09-17T04:30:20;7.70;;;2.20;;
12812;SDS011;6471;50.932;6.934;2022-09-17T04:32:47;6.70;;;1.80;;
12812;SDS011;6471;50.932;6.934;2022-09-17T04:35:13;9.90;;;2.40;;
12812;SDS011;6471;50.932;6.934;2022-09-17T04:37:39;8.83;;;1.87;;
12812;SDS011;6471;50.932;6.934;2022-09-17T04:40:05;4.67;;;1.97;;
12812;SDS011;6471;50.932;6.934;2022-09-17T04:42:31;4.70;;;1.60;;
12812;SDS011;6471;50.932;6.934;2022-09-17T04:44:57;7.10;;;1.77;;
12812;SDS011;6471;50.932;6.934;2022-09-17T04:47:24;5.73;;;1.93;;
12812;SDS011;6471;50.932;6.934;2022-09-17T04:49:50;4.77;;;2.20;;
12812;SDS011;6471;50.932;6.934;2022-09-17T04:52:16;4.43;;;1.70;;
12812;SDS011;6471;50.932;6.934;2022-09-17T04:54:42;8.83;;;2.33;;
12812;SDS011;6471;50.932;6.934;2022-09-17T04:57:09;5.40;;;2.03;;
12812;SDS011;6471;50.932;6.934;2022-09-17T04:59:35;6.43;;;2.00;;
12812;SDS011;6471;50.932;6.934;2022-09-17T05:02:01;6.23;;;2.03;;
12812;SDS011;6471;50.932;6.934;2022-09-17T05:04:27;5.47;;;1.87;;
12812;SDS011;6471;50.932;6.934;2022-09-17T05:06:53;4.60;;;1.70;;
12812;SDS011;6471;50.932;6.934;2022-09-17T05:09:19;5.93;;;1.77;;
12812;SDS011;6471;50.932;6.934;2022-09-17T05:11:45;5.80;;;1.70;;
12812;SDS011;6471;50.932;6.934;2022-09-17T05:14:11;5.37;;;2.00;;
12812;SDS011;6471;50.932;6.934;2022-09-17T05:16:38;5.13;;;1.90;;
12812;SDS011;6471;50.932;6.934;2022-09-17T05:19:04;8.67;;;1.87;;
12812;SDS011;6471;50.932;6.934;2022-09-17T05:21:30;5.23;;;1.60;;
12812;SDS011;6471;50.932;6.934;2022-09-17T05:23:56;5.23;;;1.80;;
12812;SDS011;6471;50.932;6.934;2022-09-17T05:26:22;8.10;;;2.23;;
12812;SDS011;6471;50.932;6.934;2022-09-17T05:28:49;4.97;;;1.73;;
12812;SDS011;6471;50.932;6.934;2022-09-17T05:31:15;5.27;;;1.60;;
12812;SDS011;6471;50.932;6.934;2022-09-17T05:33:41;6.33;;;2.00;;
12812;SDS011;6471;50.932;6.934;2022-09-17T05:36:07;7.37;;;1.73;;
12812;SDS011;6471;50.932;6.934;2022-09-17T05:38:33;5.43;;;1.80;;
12812;SDS011;6471;50.932;6.934;2022-09-17T05:41:02;6.00;;;1.80;;
12812;SDS011;6471;50.932;6.934;2022-09-17T05:43:29;7.53;;;2.13;;
12812;SDS011;6471;50.932;6.934;2022-09-17T05:45:55;6.77;;;1.90;;
12812;SDS011;6471;50.932;6.934;2022-09-17T05:48:25;8.57;;;1.70;;
12812;SDS011;6471;50.932;6.934;2022-09-17T05:50:51;7.77;;;1.73;;
12812;SDS011;6471;50.932;6.934;2022-09-17T05:53:19;7.07;;;1.73;;
12812;SDS011;6471;50.932;6.934;2022-09-17T05:55:45;4.70;;;1.50;;
12812;SDS011;6471;50.932;6.934;2022-09-17T05:58:12;7.93;;;1.93;;
12812;SDS011;6471;50.932;6.934;2022-09-17T06:00:39;5.27;;;1.40;;
12812;SDS011;6471;50.932;6.934;2022-09-17T06:03:05;7.43;;;2.00;;
12812;SDS011;6471;50.932;6.934;2022-09-17T06:05:31;5.80;;;1.57;;
12812;SDS011;6471;50.932;6.934;2022-09-17T06:07:57;7.13;;;1.77;;
12812;SDS011;6471;50.932;6.934;2022-09-17T06:10:23;5.07;;;1.47;;
12812;SDS011;6471;50.932;6.934;2022-09-17T06:12:59;6.93;;;1.70;;
12812;SDS011;6471;50.932;6.934;2022-09-17T06:15:25;9.77;;;2.30;;
12812;SDS011;6471;50.932;6.934;2022-09-17T06:17:51;8.20;;;1.97;;
12812;SDS011;6471;50.932;6.934;2022-09-17T06:20:18;7.60;;;1.70;;
12812;SDS011;6471;50.932;6.934;2022-09-17T06:22:44;4.97;;;1.63;;
12812;SDS011;6471;50.932;6.934;2022-09-17T06:25:10;7.70;;;1.77;;
12812;SDS011;6471;50.932;6.934;2022-09-17T06:27:37;3.33;;;1.70;;
12812;SDS011;6471;50.932;6.934;2022-09-17T06:30:03;7.63;;;1.80;;
12812;SDS011;6471;50.932;6.934;2022-09-17T06:32:29;5.03;;;1.60;;
12812;SDS011;6471;50.932;6.934;2022-09-17T06:34:56;6.93;;;1.63;;
12812;SDS011;6471;50.932;6.934;2022-09-17T06:37:29;5.03;;;1.70;;
12812;SDS011;6471;50.932;6.934;2022-09-17T06:39:55;6.50;;;1.90;;
12812;SDS011;6471;50.932;6.934;2022-09-17T06:42:23;5.23;;;1.60;;
12812;SDS011;6471;50.932;6.934;2022-09-17T06:44:49;4.97;;;1.80;;
12812;SDS011;6471;50.932;6.934;2022-09-17T06:47:15;4.00;;;1.33;;
12812;SDS011;6471;50.932;6.934;2022-09-17T06:49:41;4.13;;;1.87;;
12812;SDS011;6471;50.932;6.934;2022-09-17T06:52:08;8.43;;;1.70;;
12812;SDS011;6471;50.932;6.934;2022-09-17T06:54:34;6.83;;;1.60;;
12812;SDS011;6471;50.932;6.934;2022-09-17T06:57:00;7.07;;;1.70;;
12812;SDS011;6471;50.932;6.934;2022-09-17T06:59:26;5.90;;;1.83;;
12812;SDS011;6471;50.932;6.934;2022-09-17T07:01:52;7.23;;;2.30;;
12812;SDS011;6471;50.932;6.934;2022-09-17T07:04:18;5.67;;;1.70;;
12812;SDS011;6471;50.932;6.934;2022-09-17T07:06:44;6.30;;;1.50;;
12812;SDS011;6471;50.932;6.934;2022-09-17T07:09:11;6.37;;;1.70;;
12812;SDS011;6471;50.932;6.934;2022-09-17T07:11:37;5.83;;;1.57;;
12812;SDS011;6471;50.932;6.934;2022-09-17T07:14:03;7.07;;;1.77;;
12812;SDS011;6471;50.932;6.934;2022-09-17T07:16:30;3.93;;;1.73;;
12812;SDS011;6471;50.932;6.934;2022-09-17T07:22:18;5.97;;;1.90;;
12812;SDS011;6471;50.932;6.934;2022-09-17T07:25:00;4.27;;;1.50;;
12812;SDS011;6471;50.932;6.934;2022-09-17T07:30:17;7.33;;;1.50;;
12812;SDS011;6471;50.932;6.934;2022-09-17T07:32:43;6.90;;;1.60;;
12812;SDS011;6471;50.932;6.934;2022-09-17T07:35:10;7.53;;;2.00;;
12812;SDS011;6471;50.932;6.934;2022-09-17T07:37:36;7.10;;;1.93;;
12812;SDS011;6471;50.932;6.934;2022-09-17T07:40:02;4.87;;;1.53;;
12812;SDS011;6471;50.932;6.934;2022-09-17T07:42:31;6.97;;;1.60;;
12812;SDS011;6471;50.932;6.934;2022-09-17T07:44:58;3.10;;;1.40;;
12812;SDS011;6471;50.932;6.934;2022-09-17T07:47:24;5.87;;;1.60;;
12812;SDS011;6471;50.932;6.934;2022-09-17T07:49:50;6.43;;;1.70;;
12812;SDS011;6471;50.932;6.934;2022-09-17T07:52:16;5.07;;;1.60;;
12812;SDS011;6471;50.932;6.934;2022-09-17T07:54:42;6.27;;;1.53;;
12812;SDS011;6471;50.932;6.934;2022-09-17T07:57:08;5.27;;;1.57;;
12812;SDS011;6471;50.932;6.934;2022-09-17T07:59:34;7.73;;;1.97;;
12812;SDS011;6471;50.932;6.934;2022-09-17T08:02:00;5.07;;;1.53;;
12812;SDS011;6471;50.932;6.934;2022-09-17T08:04:26;5.50;;;1.50;;
12812;SDS011;6471;50.932;6.934;2022-09-17T08:06:52;12.57;;;2.10;;
12812;SDS011;6471;50.932;6.934;2022-09-17T08:09:19;7.53;;;1.87;;
12812;SDS011;6471;50.932;6.934;2022-09-17T08:11:45;5.43;;;1.50;;
12812;SDS011;6471;50.932;6.934;2022-09-17T08:14:14;7.20;;;1.60;;
12812;SDS011;6471;50.932;6.934;2022-09-17T08:16:40;5.60;;;1.57;;
12812;SDS011;6471;50.932;6.934;2022-09-17T08:19:07;5.03;;;1.30;;
12812;SDS011;6471;50.932;6.934;2022-09-17T08:21:36;9.40;;;1.90;;
12812;SDS011;6471;50.932;6.934;2022-09-17T08:24:02;6.83;;;1.70;;
12812;SDS011;6471;50.932;6.934;2022-09-17T08:26:29;6.40;;;1.63;;
12812;SDS011;6471;50.932;6.934;2022-09-17T08:28:55;9.80;;;2.33;;
12812;SDS011;6471;50.932;6.934;2022-09-17T08:31:22;4.13;;;1.40;;
12812;SDS011;6471;50.932;6.934;2022-09-17T08:33:48;7.23;;;1.67;;
12812;SDS011;6471;50.932;6.934;2022-09-17T08:36:15;6.97;;;1.67;;
12812;SDS011;6471;50.932;6.934;2022-09-17T08:38:42;6.57;;;1.50;;
12812;SDS011;6471;50.932;6.934;2022-09-17T08:46:10;6.43;;;1.60;;
12812;SDS011;6471;50.932;6.934;2022-09-17T08:48:48;7.57;;;1.80;;
12812;SDS011;6471;50.932;6.934;2022-09-17T08:56:44;6.70;;;1.60;;
12812;SDS011;6471;50.932;6.934;2022-09-17T09:02:02;7.37;;;1.70;;
12812;SDS011;6471;50.932;6.934;2022-09-17T09:04:55;5.00;;;1.30;;
12812;SDS011;6471;50.932;6.934;2022-09-17T09:07:22;3.77;;;1.40;;
12812;SDS011;6471;50.932;6.934;2022-09-17T09:12:30;5.20;;;1.93;;
12812;SDS011;6471;50.932;6.934;2022-09-17T09:14:58;5.43;;;1.70;;
12812;SDS011;6471;50.932;6.934;2022-09-17T09:17:27;7.17;;;1.60;;
12812;SDS011;6471;50.932;6.934;2022-09-17T09:19:54;4.20;;;1.70;;
12812;SDS011;6471;50.932;6.934;2022-09-17T09:22:27;10.20;;;1.97;;
12812;SDS011;6471;50.932;6.934;2022-09-17T09:28:00;6.73;;;1.90;;
12812;SDS011;6471;50.932;6.934;2022-09-17T09:30:29;3.97;;;1.40;;
12812;SDS011;6471;50.932;6.934;2022-09-17T09:35:33;5.57;;;1.63;;
12812;SDS011;6471;50.932;6.934;2022-09-17T09:43:33;4.20;;;1.50;;
12812;SDS011;6471;50.932;6.934;2022-09-17T09:46:01;8.17;;;1.70;;
12812;SDS011;6471;50.932;6.934;2022-09-17T09:48:36;3.53;;;1.37;;
12812;SDS011;6471;50.932;6.934;2022-09-17T09:58:59;4.63;;;1.53;;
12812;SDS011;6471;50.932;6.934;2022-09-17T10:01:27;5.17;;;1.70;;
12812;SDS011;6471;50.932;6.934;2022-09-17T10:03:55;3.30;;;1.30;;
12812;SDS011;6471;50.932;6.934;2022-09-17T10:06:43;3.30;;;1.53;;
12812;SDS011;6471;50.932;6.934;2022-09-17T10:09:10;5.20;;;1.53;;
12812;SDS011;6471;50.932;6.934;2022-09-17T10:11:36;5.87;;;1.77;;
12812;SDS011;6471;50.932;6.934;2022-09-17T10:14:23;4.70;;;1.17;;
12812;SDS011;6471;50.932;6.934;2022-09-17T10:16:58;3.80;;;1.33;;
12812;SDS011;6471;50.932;6.934;2022-09-17T10:19:36;7.53;;;1.40;;
12812;SDS011;6471;50.932;6.934;2022-09-17T10:25:01;4.57;;;1.60;;
12812;SDS011;6471;50.932;6.934;2022-09-17T10:27:27;2.80;;;1.30;;
12812;SDS011;6471;50.932;6.934;2022-09-17T10:32:33;4.00;;;1.27;;
12812;SDS011;6471;50.932;6.934;2022-09-17T10:35:00;4.70;;;1.13;;
12812;SDS011;6471;50.932;6.934;2022-09-17T10:37:42;2.60;;;1.03;;
12812;SDS011;6471;50.932;6.934;2022-09-17T10:40:23;4.60;;;1.83;;
12812;SDS011;6471;50.932;6.934;2022-09-17T10:43:14;4.90;;;1.27;;
12812;SDS011;6471;50.932;6.934;2022-09-17T10:45:42;5.03;;;1.40;;
12812;SDS011;6471;50.932;6.934;2022-09-17T10:48:16;2.53;;;1.20;;
12812;SDS011;6471;50.932;6.934;2022-09-17T10:50:48;2.40;;;1.20;;
12812;SDS011;6471;50.932;6.934;2022-09-17T10:53:15;2.70;;;1.10;;
12812;SDS011;6471;50.932;6.934;2022-09-17T10:55:43;5.10;;;1.20;;
12812;SDS011;6471;50.932;6.934;2022-09-17T11:11:19;4.77;;;1.47;;
12812;SDS011;6471;50.932;6.934;2022-09-17T11:14:13;4.77;;;1.40;;
12812;SDS011;6471;50.932;6.934;2022-09-17T11:19:18;7.63;;;1.23;;
12812;SDS011;6471;50.932;6.934;2022-09-17T11:21:47;2.80;;;1.20;;
12812;SDS011;6471;50.932;6.934;2022-09-17T11:34:57;3.37;;;1.30;;
12812;SDS011;6471;50.932;6.934;2022-09-17T11:37:39;4.13;;;1.40;;
12812;SDS011;6471;50.932;6.934;2022-09-17T11:42:36;2.93;;;1.00;;
12812;SDS011;6471;50.932;6.934;2022-09-17T11:45:12;4.23;;;1.27;;
12812;SDS011;6471;50.932;6.934;2022-09-17T11:47:41;4.77;;;1.03;;
12812;SDS011;6471;50.932;6.934;2022-09-17T11:50:18;2.57;;;0.90;;
12812;SDS011;6471;50.932;6.934;2022-09-17T11:52:58;1.53;;;0.63;;
12812;SDS011;6471;50.932;6.934;2022-09-17T11:55:27;1.00;;;0.60;;
12812;SDS011;6471;50.932;6.934;2022-09-17T11:57:56;1.97;;;0.80;;
12812;SDS011;6471;50.932;6.934;2022-09-17T12:00:24;1.50;;;0.80;;
12812;SDS011;6471;50.932;6.934;2022-09-17T12:02:59;1.40;;;0.80;;
12812;SDS011;6471;50.932;6.934;2022-09-17T12:05:27;1.77;;;1.00;;
12812;SDS011;6471;50.932;6.934;2022-09-17T12:12:58;3.23;;;1.07;;
12812;SDS011;6471;50.932;6.934;2022-09-17T12:15:28;4.23;;;1.00;;
12812;SDS011;6471;50.932;6.934;2022-09-17T12:20:40;2.33;;;0.90;;
12812;SDS011;6471;50.932;6.934;2022-09-17T12:23:09;1.97;;;0.60;;
12812;SDS011;6471;50.932;6.934;2022-09-17T12:25:38;2.93;;;1.10;;
12812;SDS011;6471;50.932;6.934;2022-09-17T12:28:10;3.17;;;1.33;;
12812;SDS011;6471;50.932;6.934;2022-09-17T12:30:41;2.40;;;1.20;;
12812;SDS011;6471;50.932;6.934;2022-09-17T12:41:09;3.20;;;1.50;;
12812;SDS011;6471;50.932;6.934;2022-09-17T12:46:10;3.77;;;1.40;;
12812;SDS011;6471;50.932;6.934;2022-09-17T12:48:40;2.23;;;1.17;;
12812;SDS011;6471;50.932;6.934;2022-09-17T12:53:41;5.73;;;1.33;;
12812;SDS011;6471;50.932;6.934;2022-09-17T13:01:11;3.30;;;0.90;;
12812;SDS011;6471;50.932;6.934;2022-09-17T13:03:39;2.00;;;1.00;;
12812;SDS011;6471;50.932;6.934;2022-09-17T13:06:13;2.07;;;1.00;;
12812;SDS011;6471;50.932;6.934;2022-09-17T13:13:50;1.67;;;1.00;;
12812;SDS011;6471;50.932;6.934;2022-09-17T13:16:20;2.00;;;1.00;;
12812;SDS011;6471;50.932;6.934;2022-09-17T13:21:21;4.67;;;1.20;;
12812;SDS011;6471;50.932;6.934;2022-09-17T13:23:48;4.13;;;1.97;;
12812;SDS011;6471;50.932;6.934;2022-09-17T13:26:19;2.57;;;1.37;;
12812;SDS011;6471;50.932;6.934;2022-09-17T13:28:49;2.20;;;1.30;;
12812;SDS011;6471;50.932;6.934;2022-09-17T13:31:45;12.13;;;2.00;;
12812;SDS011;6471;50.932;6.934;2022-09-17T13:36:47;4.30;;;1.20;;
12812;SDS011;6471;50.932;6.934;2022-09-17T13:39:34;3.43;;;1.17;;
12812;SDS011;6471;50.932;6.934;2022-09-17T13:44:52;2.70;;;1.27;;
12812;SDS011;6471;50.932;6.934;2022-09-17T13:47:32;2.10;;;1.03;;
12812;SDS011;6471;50.932;6.934;2022-09-17T13:50:00;2.53;;;1.07;;
12812;SDS011;6471;50.932;6.934;2022-09-17T13:52:31;2.63;;;1.00;;
12812;SDS011;6471;50.932;6.934;2022-09-17T13:54:58;2.20;;;1.00;;
12812;SDS011;6471;50.932;6.934;2022-09-17T13:57:25;2.77;;;1.20;;
12812;SDS011;6471;50.932;6.934;2022-09-17T13:59:53;2.60;;;1.10;;
12812;SDS011;6471;50.932;6.934;2022-09-17T14:04:55;3.47;;;1.30;;
12812;SDS011;6471;50.932;6.934;2022-09-17T14:09:51;1.53;;;1.10;;
12812;SDS011;6471;50.932;6.934;2022-09-17T14:17:57;1.80;;;0.97;;
12812;SDS011;6471;50.932;6.934;2022-09-17T14:20:28;2.47;;;1.00;;
12812;SDS011;6471;50.932;6.934;2022-09-17T14:23:00;1.80;;;0.90;;
12812;SDS011;6471;50.932;6.934;2022-09-17T14:25:38;2.03;;;1.00;;
12812;SDS011;6471;50.932;6.934;2022-09-17T14:28:12;2.43;;;1.00;;
12812;SDS011;6471;50.932;6.934;2022-09-17T14:30:41;1.50;;;1.00;;
12812;SDS011;6471;50.932;6.934;2022-09-17T14:33:17;1.73;;;0.90;;
12812;SDS011;6471;50.932;6.934;2022-09-17T14:35:48;1.63;;;0.90;;
12812;SDS011;6471;50.932;6.934;2022-09-17T14:40:48;4.37;;;1.23;;
12812;SDS011;6471;50.932;6.934;2022-09-17T14:43:57;2.43;;;1.20;;
12812;SDS011;6471;50.932;6.934;2022-09-17T14:46:04;4.77;;;1.10;;
12812;SDS011;6471;50.932;6.934;2022-09-17T14:48:32;1.87;;;0.87;;
12812;SDS011;6471;50.932;6.934;2022-09-17T14:56:30;3.73;;;1.23;;
12812;SDS011;6471;50.932;6.934;2022-09-17T14:58:57;3.60;;;1.10;;
12812;SDS011;6471;50.932;6.934;2022-09-17T15:01:24;2.53;;;1.00;;
12812;SDS011;6471;50.932;6.934;2022-09-17T15:06:36;3.77;;;1.00;;
12812;SDS011;6471;50.932;6.934;2022-09-17T15:09:02;2.53;;;1.20;;
12812;SDS011;6471;50.932;6.934;2022-09-17T15:11:29;3.67;;;1.07;;
12812;SDS011;6471;50.932;6.934;2022-09-17T15:13:55;2.80;;;1.00;;
12812;SDS011;6471;50.932;6.934;2022-09-17T15:16:23;1.50;;;0.80;;
12812;SDS011;6471;50.932;6.934;2022-09-17T15:18:53;2.13;;;1.00;;
12812;SDS011;6471;50.932;6.934;2022-09-17T15:23:50;1.60;;;1.10;;
12812;SDS011;6471;50.932;6.934;2022-09-17T15:26:19;2.93;;;1.40;;
12812;SDS011;6471;50.932;6.934;2022-09-17T15:28:47;1.30;;;1.13;;
12812;SDS011;6471;50.932;6.934;2022-09-17T15:31:17;2.43;;;1.40;;
12812;SDS011;6471;50.932;6.934;2022-09-17T15:33:46;3.60;;;1.40;;
12812;SDS011;6471;50.932;6.934;2022-09-17T15:36:20;1.83;;;1.00;;
12812;SDS011;6471;50.932;6.934;2022-09-17T15:38:47;3.23;;;1.27;;
12812;SDS011;6471;50.932;6.934;2022-09-17T15:41:32;3.87;;;1.23;;
12812;SDS011;6471;50.932;6.934;2022-09-17T15:44:06;3.63;;;1.77;;
12812;SDS011;6471;50.932;6.934;2022-09-17T15:46:32;2.37;;;1.40;;
12812;SDS011;6471;50.932;6.934;2022-09-17T15:49:01;4.27;;;1.80;;
12812;SDS011;6471;50.932;6.934;2022-09-17T15:51:32;6.03;;;1.70;;
12812;SDS011;6471;50.932;6.934;2022-09-17T15:54:05;3.43;;;1.47;;
12812;SDS011;6471;50.932;6.934;2022-09-17T15:56:32;2.50;;;1.40;;
12812;SDS011;6471;50.932;6.934;2022-09-17T16:08:58;3.57;;;1.63;;
12812;SDS011;6471;50.932;6.934;2022-09-17T16:11:29;4.77;;;1.60;;
12812;SDS011;6471;50.932;6.934;2022-09-17T16:13:57;3.53;;;1.80;;
12812;SDS011;6471;50.932;6.934;2022-09-17T16:16:31;4.23;;;1.80;;
12812;SDS011;6471;50.932;6.934;2022-09-17T16:18:58;7.33;;;1.93;;
12812;SDS011;6471;50.932;6.934;2022-09-17T16:21:24;4.10;;;1.60;;
12812;SDS011;6471;50.932;6.934;2022-09-17T16:23:51;4.53;;;2.10;;
12812;SDS011;6471;50.932;6.934;2022-09-17T16:26:21;5.73;;;2.20;;
12812;SDS011;6471;50.932;6.934;2022-09-17T16:28:51;5.33;;;1.77;;
12812;SDS011;6471;50.932;6.934;2022-09-17T16:31:18;4.47;;;1.80;;
12812;SDS011;6471;50.932;6.934;2022-09-17T16:33:48;2.97;;;1.57;;
12812;SDS011;6471;50.932;6.934;2022-09-17T16:36:16;6.20;;;1.57;;
12812;SDS011;6471;50.932;6.934;2022-09-17T16:38:43;4.73;;;1.40;;
12812;SDS011;6471;50.932;6.934;2022-09-17T16:41:09;3.53;;;1.67;;
12812;SDS011;6471;50.932;6.934;2022-09-17T16:43:36;2.77;;;1.50;;
12812;SDS011;6471;50.932;6.934;2022-09-17T16:46:05;2.33;;;1.30;;
12812;SDS011;6471;50.932;6.934;2022-09-17T16:48:34;2.13;;;1.40;;
12812;SDS011;6471;50.932;6.934;2022-09-17T16:51:10;3.33;;;1.57;;
12812;SDS011;6471;50.932;6.934;2022-09-17T16:53:37;2.77;;;1.60;;
12812;SDS011;6471;50.932;6.934;2022-09-17T16:56:07;3.60;;;1.63;;
12812;SDS011;6471;50.932;6.934;2022-09-17T16:58:34;5.77;;;1.90;;
12812;SDS011;6471;50.932;6.934;2022-09-17T17:01:18;9.90;;;2.20;;
12812;SDS011;6471;50.932;6.934;2022-09-17T17:03:49;7.97;;;2.30;;
12812;SDS011;6471;50.932;6.934;2022-09-17T17:06:19;6.23;;;2.00;;
12812;SDS011;6471;50.932;6.934;2022-09-17T17:08:45;9.43;;;2.60;;
12812;SDS011;6471;50.932;6.934;2022-09-17T17:11:12;6.37;;;2.00;;
12812;SDS011;6471;50.932;6.934;2022-09-17T17:13:38;5.90;;;1.90;;
12812;SDS011;6471;50.932;6.934;2022-09-17T17:16:06;6.90;;;1.80;;
12812;SDS011;6471;50.932;6.934;2022-09-17T17:18:33;4.33;;;1.57;;
12812;SDS011;6471;50.932;6.934;2022-09-17T17:21:05;5.33;;;2.03;;
12812;SDS011;6471;50.932;6.934;2022-09-17T17:23:32;4.87;;;1.50;;
12812;SDS011;6471;50.932;6.934;2022-09-17T17:25:58;5.17;;;1.50;;
12812;SDS011;6471;50.932;6.934;2022-09-17T17:28:24;6.43;;;1.77;;
12812;SDS011;6471;50.932;6.934;2022-09-17T17:30:51;5.33;;;1.93;;
12812;SDS011;6471;50.932;6.934;2022-09-17T17:33:17;6.50;;;2.00;;
12812;SDS011;6471;50.932;6.934;2022-09-17T17:35:43;6.17;;;1.93;;
12812;SDS011;6471;50.932;6.934;2022-09-17T17:38:10;8.87;;;1.73;;
12812;SDS011;6471;50.932;6.934;2022-09-17T17:40:36;4.83;;;1.80;;
12812;SDS011;6471;50.932;6.934;2022-09-17T17:43:02;5.97;;;1.87;;
12812;SDS011;6471;50.932;6.934;2022-09-17T17:45:28;5.20;;;1.70;;
12812;SDS011;6471;50.932;6.934;2022-09-17T17:47:54;6.87;;;1.93;;
12812;SDS011;6471;50.932;6.934;2022-09-17T17:50:20;4.70;;;1.57;;
12812;SDS011;6471;50.932;6.934;2022-09-17T17:52:47;5.80;;;1.77;;
12812;SDS011;6471;50.932;6.934;2022-09-17T17:55:14;3.50;;;1.30;;
12812;SDS011;6471;50.932;6.934;2022-09-17T17:57:40;7.37;;;1.67;;
12812;SDS011;6471;50.932;6.934;2022-09-17T18:00:06;5.47;;;1.50;;
12812;SDS011;6471;50.932;6.934;2022-09-17T18:02:34;5.57;;;1.93;;
12812;SDS011;6471;50.932;6.934;2022-09-17T18:05:00;4.10;;;1.50;;
12812;SDS011;6471;50.932;6.934;2022-09-17T18:07:27;3.40;;;1.30;;
12812;SDS011;6471;50.932;6.934;2022-09-17T18:09:53;4.37;;;1.40;;
12812;SDS011;6471;50.932;6.934;2022-09-17T18:12:40;5.50;;;1.60;;
12812;SDS011;6471;50.932;6.934;2022-09-17T18:15:14;4.43;;;1.67;;
12812;SDS011;6471;50.932;6.934;2022-09-17T18:17:41;4.37;;;1.87;;
12812;SDS011;6471;50.932;6.934;2022-09-17T18:20:07;4.13;;;1.73;;
12812;SDS011;6471;50.932;6.934;2022-09-17T18:22:34;3.30;;;1.57;;
12812;SDS011;6471;50.932;6.934;2022-09-17T18:25:01;5.40;;;1.90;;
12812;SDS011;6471;50.932;6.934;2022-09-17T18:27:30;4.17;;;1.53;;
12812;SDS011;6471;50.932;6.934;2022-09-17T18:29:59;2.83;;;1.70;;
12812;SDS011;6471;50.932;6.934;2022-09-17T18:32:28;3.10;;;1.60;;